• Join FlightAware (Why Join?)
  • Login
  • US Flag 
06:23AM EDT


 

Airport Tracker/Info


-or-


 

Live Flight TrackerFlight Track Log ✈ ASQ6060 ✈ 05-May-2012 ✈ KBNA - KDEN

Flight Track Log - Related Links

Times and Time Zones

All times are in EDT time to prevent confusion due to time zone crossing. See the ASQ6060 flight status page for this flight to view local times or setup timezone preferences in your user account.

Time Position Orientation Groundspeed Altitude Reporting Facility
EDT Latitude Longitude Course Direction KTS MPH feet Rate Location/Type
09:45AM 36.1167 -86.6833 219° Southwest 158 182 1,200  Level Nashville TRACON
09:46AM 36.0833 -86.7167 302° West 195 224 2,700 1,920 Climbing Nashville TRACON
09:47AM 36.1167 -86.7833 345° North 191 220 4,700 1,680 Climbing Nashville TRACON
09:48AM 36.1667 -86.8000 22° Northeast 243 280 6,100 1,920 Climbing Nashville TRACON
09:50AM 36.2644 -86.7508 28° Northeast 253 291 9,500 2,040 Climbing Memphis Center
09:51AM 36.3300 -86.7067 26° Northeast 253 291 11,200 1,380 Climbing Memphis Center
09:52AM 36.4078 -86.6594 26° Northeast 281 323 12,300 1,020 Climbing Memphis Center
09:53AM 36.4958 -86.6064 27° Northeast 320 368 13,300 1,200 Climbing Memphis Center
09:54AM 36.5858 -86.5503 27° Northeast 353 406 14,700 1,440 Climbing Memphis Center
09:55AM 36.6800 -86.4917 27° Northeast 361 415 16,200 1,200 Climbing Memphis Center
09:56AM 36.7719 -86.4328 26° Northeast 366 421 17,100 960 Climbing Memphis Center
09:57AM 36.8719 -86.3708 26° Northeast 380 437 18,200 1,320 Climbing Memphis Center
09:58AM 37.0375 -86.2681 28° Northeast 390 449 20,800 1,440 Climbing Indianapolis Center
09:59AM 37.1306 -86.2064 27° Northeast 381 438 22,200 1,260 Climbing Indianapolis Center
10:00AM 37.2281 -86.1444 26° Northeast 381 438 23,400 1,260 Climbing Indianapolis Center
10:01AM 37.3253 -86.0853 315° West 381 438 24,800 1,380 Climbing Indianapolis Center
10:03AM 37.4369 -86.2278 279° West 326 375 27,600 1,200 Climbing Indianapolis Center
10:04AM 37.4492 -86.3300 276° West 337 388 28,600 1,080 Climbing Indianapolis Center
10:05AM 37.4586 -86.4483 277° West 352 405 29,800 1,200 Climbing Indianapolis Center
10:06AM 37.4706 -86.5639 277° West 344 396 31,000 1,080 Climbing Indianapolis Center
10:07AM 37.4819 -86.6822 277° West 344 396 32,000 960 Climbing Indianapolis Center
10:08AM 37.4936 -86.7950 276° West 339 390 33,000 900 Climbing Indianapolis Center
10:09AM 37.5028 -86.9108 276° West 334 384 33,900 840 Climbing Indianapolis Center
10:10AM 37.5119 -87.0289 277° West 334 384 34,700 660 Climbing Indianapolis Center
10:11AM 37.5231 -87.1447 276° West 334 384 35,300 540 Climbing Indianapolis Center
10:12AM 37.5336 -87.2736 277° West 334 384 35,800 300 Climbing Indianapolis Center
10:13AM 37.5444 -87.3919 276° West 334 384 36,000 60 Climbing Indianapolis Center
10:14AM 37.5550 -87.5131 275° West 339 390 36,000  Level Indianapolis Center
10:15AM 37.5650 -87.6597 278° West 366 421 36,000  Level Memphis Center
10:16AM 37.5803 -87.7978 275° West 388 447 36,000  Level Memphis Center
10:19AM 37.6028 -88.1306 275° West 410 472 36,000  Level Kansas City Center
10:20AM 37.6128 -88.2817 276° West 430 495 36,000  Level Kansas City Center
10:21AM 37.6253 -88.4406 276° West 445 512 36,000  Level Kansas City Center
10:22AM 37.6372 -88.5969 279° West 451 519 36,000  Level Kansas City Center
10:23AM 37.6547 -88.7375 274° West 451 519 36,000  Level Kansas City Center
10:24AM 37.6644 -88.8992 275° West 462 532 36,000  Level Kansas City Center
10:25AM 37.6758 -89.0558 275° West 462 532 36,000  Level Kansas City Center
10:26AM 37.6872 -89.2178 275° West 462 532 36,000  Level Kansas City Center
10:27AM 37.6986 -89.3797 274° West 462 532 36,000  Level Kansas City Center
10:28AM 37.7078 -89.5447 275° West 462 532 36,000  Level Kansas City Center
10:29AM 37.7183 -89.7042 274° West 462 532 36,000  Level Kansas City Center
10:30AM 37.7267 -89.8611 275° West 448 516 36,000  Level Kansas City Center
10:31AM 37.7375 -90.0339 275° West 460 529 36,000  Level Kansas City Center
10:32AM 37.7469 -90.1803 275° West 465 535 36,000  Level Kansas City Center
10:33AM 37.7569 -90.3425 273° West 460 529 36,000  Level Kansas City Center
10:34AM 37.7647 -90.5103 275° West 444 511 36,000  Level Kansas City Center
10:35AM 37.7764 -90.6725 274° West 449 517 36,000  Level Kansas City Center
10:36AM 37.7856 -90.8350 273° West 455 524 36,000  Level Kansas City Center
10:37AM 37.7928 -90.9975 274° West 463 533 36,000  Level Kansas City Center
10:38AM 37.8014 -91.1550 274° West 463 533 36,000  Level Kansas City Center
10:39AM 37.8100 -91.3150 274° West 456 525 36,000  Level Kansas City Center
10:40AM 37.8183 -91.4722 274° West 456 525 36,000  Level Kansas City Center
10:41AM 37.8264 -91.6350 274° West 461 531 36,000  Level Kansas City Center
10:42AM 37.8342 -91.7925 274° West 461 531 36,000  Level Kansas City Center
10:43AM 37.8419 -91.9525 272° West 461 531 36,000  Level Kansas City Center
10:44AM 37.8472 -92.1103 271° West 461 531 36,000  Level Kansas City Center
10:45AM 37.8503 -92.2653 275° West 461 531 36,000  Level Kansas City Center
10:46AM 37.8592 -92.4019 273° West 461 531 36,000  Level Kansas City Center
10:47AM 37.8664 -92.5806 274° West 468 539 36,000  Level Kansas City Center
10:48AM 37.8750 -92.7381 273° West 461 531 36,000  Level Kansas City Center
10:49AM 37.8814 -92.8958 273° West 456 525 36,000  Level Kansas City Center
10:50AM 37.8878 -93.0589 273° West 456 525 36,000  Level Kansas City Center
10:51AM 37.8936 -93.2167 273° West 456 525 36,000  Level Kansas City Center
10:52AM 37.8994 -93.3717 273° West 456 525 36,000  Level Kansas City Center
10:53AM 37.9050 -93.5322 272° West 461 531 36,000  Level Kansas City Center
10:54AM 37.9103 -93.6900 271° West 456 525 36,000  Level Kansas City Center
10:55AM 37.9133 -93.8453 272° West 456 525 36,000  Level Kansas City Center
10:56AM 37.9183 -94.0033 272° West 456 525 36,000  Level Kansas City Center
10:57AM 37.9231 -94.1611 272° West 456 525 36,000  Level Kansas City Center
10:58AM 37.9275 -94.3217 270° West 456 525 36,000  Level Kansas City Center
10:59AM 37.9278 -94.4797 272° West 456 525 36,000  Level Kansas City Center
11:00AM 37.9319 -94.6350 271° West 456 525 36,000  Level Kansas City Center
11:01AM 37.9336 -94.8114 272° West 456 525 36,000  Level Kansas City Center
11:02AM 37.9372 -94.9667 272° West 456 525 36,000  Level Kansas City Center
11:03AM 37.9408 -95.1117 272° West 456 525 36,000  Level Kansas City Center
11:04AM 37.9442 -95.2669 271° West 457 526 36,000  Level Kansas City Center
11:05AM 37.9469 -95.4436 271° West 457 526 36,000  Level Kansas City Center
11:06AM 37.9500 -95.5989 271° West 450 518 36,000  Level Kansas City Center
11:07AM 37.9525 -95.7569 272° West 445 512 36,000  Level Kansas City Center
11:08AM 37.9572 -95.9019 270° West 433 498 36,000  Level Kansas City Center
11:09AM 37.9575 -96.0361 271° West 433 498 36,000  Level Kansas City Center
11:10AM 37.9594 -96.2047 270° West 433 498 36,000  Level Kansas City Center
11:11AM 37.9594 -96.3550 271° West 433 498 36,000  Level Kansas City Center
11:12AM 37.9611 -96.5078 271° West 438 504 36,000  Level Kansas City Center
11:13AM 37.9625 -96.6606 270° West 438 504 36,000  Level Kansas City Center
11:14AM 37.9619 -96.8106 272° West 438 504 36,000  Level Kansas City Center
11:15AM 37.9650 -96.9608 271° West 438 504 36,000  Level Kansas City Center
11:16AM 37.9661 -97.1164 269° West 438 504 36,000  Level Kansas City Center
11:17AM 37.9647 -97.2692 271° West 438 504 36,000  Level Kansas City Center
11:18AM 37.9658 -97.3903 270° West 438 504 36,000  Level Kansas City Center
11:19AM 37.9656 -97.5719 270° West 438 504 36,000  Level Kansas City Center
11:20AM 37.9661 -97.7092 270° West 438 504 36,000  Level Kansas City Center
11:21AM 37.9658 -97.8750 269° West 438 504 36,000  Level Kansas City Center
11:22AM 37.9639 -98.0092 271° West 438 504 36,000  Level Kansas City Center
11:23AM 37.9650 -98.1806 269° West 433 498 36,000  Level Kansas City Center
11:24AM 37.9628 -98.3200 269° West 433 498 36,000  Level Kansas City Center
11:25AM 37.9603 -98.4622 271° West 416 479 36,000  Level Kansas City Center
11:26AM 37.9617 -98.6069 269° West 416 479 36,000  Level Kansas City Center
11:27AM 37.9586 -98.7569 269° West 416 479 36,000  Level Kansas City Center
11:28AM 37.9575 -98.9019 269° West 423 487 36,000  Level Kansas City Center
11:29AM 37.9561 -99.0467 270° West 418 481 36,000  Level Kansas City Center
11:30AM 37.9569 -99.1917 267° West 418 481 36,000  Level Kansas City Center
11:31AM 37.9508 -99.3414 268° West 418 481 36,000  Level Kansas City Center
11:32AM 37.9469 -99.4858 270° West 418 481 36,000  Level Kansas City Center
11:33AM 37.9461 -99.6069 269° West 401 461 36,000  Level Kansas City Center
11:34AM 37.9439 -99.7544 268° West 412 474 36,000  Level Kansas City Center
11:35AM 37.9392 -99.9069 269° West 412 474 36,000  Level Kansas City Center
11:36AM 37.9367 -100.0489 268° West 406 467 36,000  Level Kansas City Center
11:37AM 37.9328 -100.1775 269° West 406 467 36,000  Level Kansas City Center
11:38AM 37.9314 -100.3381 267° West 411 473 36,000  Level Kansas City Center
11:39AM 37.9261 -100.4853 269° West 422 486 36,000  Level Kansas City Center
11:40AM 37.9250 -100.6325 276° West 422 486 36,000  Level Kansas City Center
11:41AM 37.9367 -100.7653 296° West 422 486 36,000  Level Kansas City Center
11:42AM 37.9936 -100.9122 295° West 422 486 36,000  Level Kansas City Center
11:43AM 38.0761 -101.1328 297° West 430 495 36,000  Level Denver Center
11:44AM 38.1256 -101.2558 295° West 435 501 36,000  Level Denver Center
11:45AM 38.1756 -101.3922 295° West 430 495 36,000  Level Denver Center
11:46AM 38.2300 -101.5389 296° West 425 489 36,000  Level Denver Center
11:47AM 38.2817 -101.6756 296° West 430 495 36,000  Level Denver Center
11:48AM 38.3286 -101.7994 295° West 430 495 36,000  Level Denver Center
11:49AM 38.3847 -101.9519 295° West 430 495 36,000 -420 Level Denver Center
11:50AM 38.4361 -102.0919 295° West 438 504 35,200 -1,440 Descending Denver Center
11:51AM 38.4894 -102.2372 296° West 443 510 33,200 -1,980 Descending Denver Center
11:52AM 38.5381 -102.3669 295° West 450 518 31,300 -1,620 Descending Denver Center
11:53AM 38.5958 -102.5283 294° West 450 518 30,000 -660 Descending Denver Center
11:54AM 38.6467 -102.6717 297° West 450 518 30,000  Level Denver Center
11:55AM 38.6919 -102.7864 295° West 434 499 30,000  Level Denver Center
11:56AM 38.7422 -102.9222 294° West 423 487 30,000  Level Denver Center
11:57AM 38.7903 -103.0583 299° West 418 481 30,000  Level Denver Center
11:58AM 38.8483 -103.1914 314° West 423 487 30,000 -900 Level Denver Center
11:59AM 38.9328 -103.3050 314° West 428 493 28,200 -1,920 Descending Denver Center
12:00PM 39.0150 -103.4161 314° West 434 499 26,200 -2,100 Descending Denver Center
12:01PM 39.0972 -103.5275 314° West 434 499 24,100 -2,100 Descending Denver Center
12:02PM 39.1814 -103.6417 314° West 424 488 22,100 -2,040 Descending Denver Center
12:03PM 39.2547 -103.7408 314° West 398 458 20,100 -1,560 Descending Denver Center
12:04PM 39.3236 -103.8319 312° West 366 421 19,000 -600 Descending Denver Center
12:05PM 39.3839 -103.9183 304° West 341 392 19,000  Level Denver Center
12:06PM 39.4361 -104.0186 254° West 336 387 19,000 -600 Level Denver Center
12:07PM 39.4114 -104.1269 256° West 298 343 17,800 -1,380 Descending Denver Center
12:08PM 39.3906 -104.2325 274° West 304 350 16,300 -1,740 Descending Denver Center
12:09PM 39.3967 -104.3450 273° West 309 356 14,400 -1,680 Descending Denver Center
12:10PM 39.4000 -104.4333 282° West 293 337 13,100 -1,080 Descending Denver TRACON
12:11PM 39.4167 -104.5333 314° West 251 289 12,400 -1,080 Descending Denver TRACON
12:12PM 39.4667 -104.6000 322° Northwest 266 306 11,000 -1,200 Descending Denver TRACON
12:13PM 39.5167 -104.6500 349° North 244 281 10,000 -540 Descending Denver TRACON
12:14PM 39.5833 -104.6667 360° North 221 254 10,000 -480 Level Denver TRACON
12:15PM 39.6333 -104.6667 360° North 229 264 9,100 -1,080 Descending Denver TRACON
12:16PM 39.7000 -104.6667 360° North 223 257 7,900 -1,200 Descending Denver TRACON
12:17PM 39.7500 -104.6667 360° North 189 217 6,800 -960 Descending Denver TRACON
12:18PM 39.8000 -104.6667 121° Southeast 151 174 6,000 -840 Descending Denver TRACON
12:26PM 39.6490 -104.3457 313° West  Level FlightAware Approximate
12:27PM 39.7258 -104.4527 331° Northwest  Level FlightAware Approximate
12:28PM 39.8183 -104.5191 331° Northwest  Level FlightAware Approximate